Palacios — WDH7171 — position and weather

sailwx.info

Track history (hours):
 
Tides and Currents Weather Stations Pressure Air Temp Water Temp Dewpoint Dewpoint Depression Visibility Wind Speed Wind Dir Waves Ship Positions

Palacios

Owner: Higman Barge Lines, Inc., Orange, TX. More information available from US FCC via Universal Licensing System and Coast Guard Vessel Documentation Center.

Last reported at 2017-Dec-10 11:44 UTC. Time now 2017-Dec-11 11:21 UTC.
Position N 29°38' W 090°20'.

Length 26 m; draft 2.7 m.

Type: Towing. MMSI: 367645520.

Date/timePositionNaut miles runAvg speedWind from/ knotsBaromVisibWave heightAir tempDewpointWater temp
2017-Dec-10 11:44N 29°38' W 090°20'1 5.1
2017-Dec-10 11:30N 29°37' W 090°21'2 4.7
2017-Dec-10 10:59N 29°35' W 090°23'2 4.0
2017-Dec-10 10:30N 29°33' W 090°23'1 2.1
2017-Dec-10 10:00N 29°33' W 090°25'0 0.1
2017-Dec-10 09:30N 29°33' W 090°25'0 0.4
2017-Dec-10 09:00N 29°33' W 090°25'1 2.2
2017-Dec-10 08:30N 29°33' W 090°26'2 3.9
2017-Dec-10 08:00N 29°34' W 090°28'3 5.1
2017-Dec-10 07:30N 29°34' W 090°31'2 4.9
2017-Dec-10 07:00N 29°34' W 090°34'2 4.8
2017-Dec-10 06:30N 29°35' W 090°37'1 2.8
2017-Dec-10 06:00N 29°35' W 090°38'2 4.9
2017-Dec-10 05:30N 29°36' W 090°41'2 3.2
2017-Dec-10 05:00N 29°36' W 090°43'2 3.9
2017-Dec-10 04:30N 29°34' W 090°43'2 3.5
2017-Dec-10 04:00N 29°33' W 090°45'0 0.9
2017-Dec-10 03:30N 29°33' W 090°45'0 0.0
2017-Dec-10 03:00N 29°33' W 090°45'0 0.0
2017-Dec-10 02:30N 29°33' W 090°45'0 0.1
2017-Dec-10 02:00N 29°33' W 090°45'0 0.3
2017-Dec-10 01:30N 29°33' W 090°45'2 3.2
2017-Dec-10 01:00N 29°32' W 090°47'3 5.4
2017-Dec-10 00:30N 29°32' W 090°50'3 5.7
2017-Dec-10 00:00N 29°33' W 090°53'3 5.9
2017-Dec-09 23:28N 29°34' W 090°57'53 4.0
2017-Dec-09 10:15N 29°51' W 091°54'1 4.8
2017-Dec-09 10:00N 29°51' W 091°55'2 4.5
2017-Dec-09 09:30N 29°50' W 091°58'2 4.6
2017-Dec-09 09:00N 29°50' W 092°00'2 4.6
2017-Dec-09 08:30N 29°49' W 092°03'2 4.6
2017-Dec-09 08:00N 29°48' W 092°05'2 4.7
2017-Dec-09 07:30N 29°47' W 092°08'2 4.6
2017-Dec-09 07:00N 29°47' W 092°11'2 4.8
2017-Dec-09 06:30N 29°47' W 092°13'2 4.8
2017-Dec-09 06:00N 29°48' W 092°16'2 4.0
2017-Dec-09 05:30N 29°49' W 092°18'2 4.0
2017-Dec-09 05:00N 29°50' W 092°20'2 3.8
2017-Dec-09 04:30N 29°51' W 092°22'3 4.6
2017-Dec-09 03:58N 29°53' W 092°23'3 4.8
2017-Dec-09 03:25N 29°53' W 092°26'32 4.5
2017-Dec-08 20:20N 29°56' W 093°03'1 4.0
2017-Dec-08 19:58N 29°56' W 093°05'2 4.5
2017-Dec-08 19:30N 29°56' W 093°07'2 4.5
2017-Dec-08 19:00N 29°56' W 093°10'2 4.6
2017-Dec-08 18:30N 29°58' W 093°11'10 1.7
2017-Dec-08 12:30N 30°06' W 093°18'0 0.0
2017-Dec-08 10:38N 30°06' W 093°18'0 0.0
2017-Dec-08 10:30N 30°06' W 093°18'0 0.0
2017-Dec-08 10:00N 30°06' W 093°18'0 0.0
2017-Dec-08 09:30N 30°06' W 093°18'0 0.0
2017-Dec-08 09:00N 30°06' W 093°18'0 0.0
2017-Dec-08 08:30N 30°06' W 093°18'0 0.0
2017-Dec-08 08:00N 30°06' W 093°18'0 0.2
2017-Dec-08 07:30N 30°06' W 093°18'1 2.8
2017-Dec-08 07:00N 30°05' W 093°20'1 1.6
2017-Dec-08 06:30N 30°05' W 093°20'1 2.7
2017-Dec-08 06:00N 30°04' W 093°21'2 3.4
2017-Dec-08 05:30N 30°04' W 093°23'2 4.5
2017-Dec-08 05:00N 30°04' W 093°26'2 4.6
2017-Dec-08 04:30N 30°04' W 093°29'2 4.6
2017-Dec-08 04:00N 30°04' W 093°31'2 4.5
2017-Dec-08 03:30N 30°04' W 093°34'2 4.8
2017-Dec-08 03:00N 30°04' W 093°37'3 5.1
2017-Dec-08 02:29N 30°04' W 093°40'12 0.9
2017-Dec-07 13:02N 29°59' W 093°53'0 0.0
2017-Dec-07 13:00N 29°59' W 093°53'0 0.0
2017-Dec-07 12:30N 29°59' W 093°53'0 0.0
2017-Dec-07 12:00N 29°59' W 093°53'0 0.0
2017-Dec-07 08:13N 29°59' W 093°53'  
2017-Dec-03 07:46N 29°22' W 094°54'0 0.0
2017-Dec-03 06:49N 29°22' W 094°54'1 1.0
2017-Dec-03 05:50N 29°22' W 094°53'0 1.2
2017-Dec-03 05:30N 29°22' W 094°53'1 1.9
2017-Dec-03 04:54N 29°23' W 094°52'2 6.3
2017-Dec-03 04:30N 29°22' W 094°49'3 5.7
2017-Dec-03 03:58N 29°23' W 094°46'2 4.3
2017-Dec-03 03:25N 29°25' W 094°44'0 0.4
2017-Dec-03 03:00N 29°25' W 094°44'0 0.0
2017-Dec-03 01:58N 29°25' W 094°44'  
2017-Nov-30 13:38N 29°25' W 094°44'0 0.0
2017-Nov-30 13:08N 29°25' W 094°44'0 0.0
2017-Nov-30 12:10N 29°25' W 094°44'0 0.0
2017-Nov-30 11:56N 29°25' W 094°44'  
Track history (hours):
 
Tides and Currents Weather Stations Pressure Air Temp Water Temp Dewpoint Dewpoint Depression Visibility Wind Speed Wind Dir Waves Ship Positions

Palacios

Owner: Higman Barge Lines, Inc., Orange, TX. More information available from US FCC via Universal Licensing System and Coast Guard Vessel Documentation Center.

Last reported at 2017-Dec-10 11:44 UTC. Time now 2017-Dec-11 11:21 UTC.
Position N 29°38' W 090°20'.

Length 26 m; draft 2.7 m.

Type: Towing. MMSI: 367645520.

Date/timePositionNaut miles runAvg speedWind from/ knotsBaromVisibWave heightAir tempDewpointWater temp
2017-Dec-10 11:44N 29°38' W 090°20'1 5.1
2017-Dec-10 11:30N 29°37' W 090°21'2 4.7
2017-Dec-10 10:59N 29°35' W 090°23'2 4.0
2017-Dec-10 10:30N 29°33' W 090°23'1 2.1
2017-Dec-10 10:00N 29°33' W 090°25'0 0.1
2017-Dec-10 09:30N 29°33' W 090°25'0 0.4
2017-Dec-10 09:00N 29°33' W 090°25'1 2.2
2017-Dec-10 08:30N 29°33' W 090°26'2 3.9
2017-Dec-10 08:00N 29°34' W 090°28'3 5.1
2017-Dec-10 07:30N 29°34' W 090°31'2 4.9
2017-Dec-10 07:00N 29°34' W 090°34'2 4.8
2017-Dec-10 06:30N 29°35' W 090°37'1 2.8
2017-Dec-10 06:00N 29°35' W 090°38'2 4.9
2017-Dec-10 05:30N 29°36' W 090°41'2 3.2
2017-Dec-10 05:00N 29°36' W 090°43'2 3.9
2017-Dec-10 04:30N 29°34' W 090°43'2 3.5
2017-Dec-10 04:00N 29°33' W 090°45'0 0.9
2017-Dec-10 03:30N 29°33' W 090°45'0 0.0
2017-Dec-10 03:00N 29°33' W 090°45'0 0.0
2017-Dec-10 02:30N 29°33' W 090°45'0 0.1
2017-Dec-10 02:00N 29°33' W 090°45'0 0.3
2017-Dec-10 01:30N 29°33' W 090°45'2 3.2
2017-Dec-10 01:00N 29°32' W 090°47'3 5.4
2017-Dec-10 00:30N 29°32' W 090°50'3 5.7
2017-Dec-10 00:00N 29°33' W 090°53'3 5.9
2017-Dec-09 23:28N 29°34' W 090°57'53 4.0
2017-Dec-09 10:15N 29°51' W 091°54'1 4.8
2017-Dec-09 10:00N 29°51' W 091°55'2 4.5
2017-Dec-09 09:30N 29°50' W 091°58'2 4.6
2017-Dec-09 09:00N 29°50' W 092°00'2 4.6
2017-Dec-09 08:30N 29°49' W 092°03'2 4.6
2017-Dec-09 08:00N 29°48' W 092°05'2 4.7
2017-Dec-09 07:30N 29°47' W 092°08'2 4.6
2017-Dec-09 07:00N 29°47' W 092°11'2 4.8
2017-Dec-09 06:30N 29°47' W 092°13'2 4.8
2017-Dec-09 06:00N 29°48' W 092°16'2 4.0
2017-Dec-09 05:30N 29°49' W 092°18'2 4.0
2017-Dec-09 05:00N 29°50' W 092°20'2 3.8
2017-Dec-09 04:30N 29°51' W 092°22'3 4.6
2017-Dec-09 03:58N 29°53' W 092°23'3 4.8
2017-Dec-09 03:25N 29°53' W 092°26'32 4.5
2017-Dec-08 20:20N 29°56' W 093°03'1 4.0
2017-Dec-08 19:58N 29°56' W 093°05'2 4.5
2017-Dec-08 19:30N 29°56' W 093°07'2 4.5
2017-Dec-08 19:00N 29°56' W 093°10'2 4.6
2017-Dec-08 18:30N 29°58' W 093°11'10 1.7
2017-Dec-08 12:30N 30°06' W 093°18'0 0.0
2017-Dec-08 10:38N 30°06' W 093°18'0 0.0
2017-Dec-08 10:30N 30°06' W 093°18'0 0.0
2017-Dec-08 10:00N 30°06' W 093°18'0 0.0
2017-Dec-08 09:30N 30°06' W 093°18'0 0.0
2017-Dec-08 09:00N 30°06' W 093°18'0 0.0
2017-Dec-08 08:30N 30°06' W 093°18'0 0.0
2017-Dec-08 08:00N 30°06' W 093°18'0 0.2
2017-Dec-08 07:30N 30°06' W 093°18'1 2.8
2017-Dec-08 07:00N 30°05' W 093°20'1 1.6
2017-Dec-08 06:30N 30°05' W 093°20'1 2.7
2017-Dec-08 06:00N 30°04' W 093°21'2 3.4
2017-Dec-08 05:30N 30°04' W 093°23'2 4.5
2017-Dec-08 05:00N 30°04' W 093°26'2 4.6
2017-Dec-08 04:30N 30°04' W 093°29'2 4.6
2017-Dec-08 04:00N 30°04' W 093°31'2 4.5
2017-Dec-08 03:30N 30°04' W 093°34'2 4.8
2017-Dec-08 03:00N 30°04' W 093°37'3 5.1
2017-Dec-08 02:29N 30°04' W 093°40'12 0.9
2017-Dec-07 13:02N 29°59' W 093°53'0 0.0
2017-Dec-07 13:00N 29°59' W 093°53'0 0.0
2017-Dec-07 12:30N 29°59' W 093°53'0 0.0
2017-Dec-07 12:00N 29°59' W 093°53'0 0.0
2017-Dec-07 08:13N 29°59' W 093°53'  
2017-Dec-03 07:46N 29°22' W 094°54'0 0.0
2017-Dec-03 06:49N 29°22' W 094°54'1 1.0
2017-Dec-03 05:50N 29°22' W 094°53'0 1.2
2017-Dec-03 05:30N 29°22' W 094°53'1 1.9
2017-Dec-03 04:54N 29°23' W 094°52'2 6.3
2017-Dec-03 04:30N 29°22' W 094°49'3 5.7
2017-Dec-03 03:58N 29°23' W 094°46'2 4.3
2017-Dec-03 03:25N 29°25' W 094°44'0 0.4
2017-Dec-03 03:00N 29°25' W 094°44'0 0.0
2017-Dec-03 01:58N 29°25' W 094°44'  
2017-Nov-30 13:38N 29°25' W 094°44'0 0.0
2017-Nov-30 13:08N 29°25' W 094°44'0 0.0
2017-Nov-30 12:10N 29°25' W 094°44'0 0.0
2017-Nov-30 11:56N 29°25' W 094°44'  

Dump ship's entire track history